Time;durP1;ratioP1;P1;durP2;ratioP2;P2;SDS_P1;SDS_P2;PMS_P1;PMS_P2;Temp;Humidity;BMP_temperature;BMP_pressure;BME280_temperature;BME280_humidity;BME280_pressure;Samples;Min_cycle;Max_cycle;Signal;HPM_P1;HPM_P2
2021/11/01 00:00:52;;;;;;;14.80;3.40;;;;;;;9.19;100.00;99691.88;5004134;28;20133;-65
2021/11/01 00:03:21;;;;;;;16.40;3.65;;;;;;;9.15;100.00;99684.97;4997798;28;20061;-65
2021/11/01 00:05:50;;;;;;;14.00;3.38;;;;;;;9.12;100.00;99682.44;5003272;28;20222;-65
2021/11/01 00:08:17;;;;;;;15.63;2.97;;;;;;;9.14;100.00;99684.13;4998998;28;20524;-70
2021/11/01 00:10:45;;;;;;;13.40;3.97;;;;;;;9.13;100.00;99686.84;5004306;28;20141;-70
2021/11/01 00:13:13;;;;;;;10.05;3.13;;;;;;;9.07;100.00;99690.63;4990575;28;20182;-70
2021/11/01 00:15:41;;;;;;;14.43;3.42;;;;;;;9.04;100.00;99693.44;5002711;28;20058;-70
2021/11/01 00:18:10;;;;;;;15.43;3.00;;;;;;;9.11;100.00;99684.25;4999465;28;20120;-70
2021/11/01 00:20:39;;;;;;;14.85;3.25;;;;;;;9.08;100.00;99684.38;5004190;28;20501;-70
2021/11/01 00:23:07;;;;;;;14.25;3.50;;;;;;;9.01;100.00;99684.69;5004790;28;20064;-70
2021/11/01 00:25:36;;;;;;;15.57;3.95;;;;;;;9.00;100.00;99678.53;4997754;28;20042;-70
2021/11/01 00:28:05;;;;;;;16.08;3.45;;;;;;;9.00;100.00;99683.84;5005524;28;20159;-69
2021/11/01 00:30:33;;;;;;;15.48;3.28;;;;;;;9.00;100.00;99670.53;4999631;28;20167;-66
2021/11/01 00:33:01;;;;;;;13.77;2.85;;;;;;;8.96;100.00;99680.47;5003389;28;20060;-65
2021/11/01 00:35:29;;;;;;;10.68;3.00;;;;;;;9.02;100.00;99689.97;4998991;28;20049;-70
2021/11/01 00:37:58;;;;;;;9.10;2.42;;;;;;;9.00;100.00;99670.53;5003794;28;20180;-69
2021/11/01 00:40:26;;;;;;;15.25;3.10;;;;;;;9.01;100.00;99685.59;4998889;28;20049;-70
2021/11/01 00:42:54;;;;;;;14.68;2.92;;;;;;;8.92;100.00;99673.56;5003303;28;20050;-70
2021/11/01 00:45:22;;;;;;;10.35;2.40;;;;;;;8.94;100.00;99677.00;5003591;28;20050;-70
2021/11/01 00:47:50;;;;;;;9.20;2.83;;;;;;;9.02;100.00;99676.66;5001551;28;20056;-69
2021/11/01 00:50:17;;;;;;;12.05;2.90;;;;;;;8.98;100.00;99672.41;5003438;28;20041;-70
2021/11/01 00:52:45;;;;;;;6.90;2.75;;;;;;;8.98;100.00;99665.28;5002024;28;20191;-70
2021/11/01 00:55:22;;;;;;;18.45;4.72;;;;;;;8.89;100.00;99667.50;5004609;28;20046;-69
2021/11/01 00:57:51;;;;;;;9.77;2.53;;;;;;;8.87;100.00;99662.25;5000672;28;20101;-69
2021/11/01 01:00:19;;;;;;;9.88;2.88;;;;;;;8.96;100.00;99668.97;5007436;28;20512;-65
2021/11/01 01:02:47;;;;;;;14.82;3.17;;;;;;;8.97;100.00;99666.25;5002505;28;20401;-66
2021/11/01 01:05:15;;;;;;;13.90;2.67;;;;;;;8.95;100.00;99662.75;5008868;28;20639;-65
2021/11/01 01:07:43;;;;;;;9.27;2.50;;;;;;;8.93;100.00;99669.09;5006314;28;20049;-66
2021/11/01 01:10:12;;;;;;;12.63;3.63;;;;;;;8.89;100.00;99667.50;5003417;28;20160;-65
2021/11/01 01:12:42;;;;;;;9.05;2.92;;;;;;;8.82;100.00;99663.38;5008625;28;20445;-65
2021/11/01 01:15:14;;;;;;;12.70;3.25;;;;;;;8.86;100.00;99660.50;5001460;28;20468;-65
2021/11/01 01:17:43;;;;;;;14.95;2.67;;;;;;;8.88;100.00;99655.97;5007521;28;20069;-65
2021/11/01 01:20:14;;;;;;;8.68;2.35;;;;;;;8.89;100.00;99659.53;5001324;28;20415;-65
2021/11/01 01:22:44;;;;;;;16.58;3.03;;;;;;;8.88;100.00;99653.31;5005360;28;20049;-66
2021/11/01 01:25:20;;;;;;;15.18;2.95;;;;;;;8.85;100.00;99655.25;5002636;28;20053;-65
2021/11/01 01:27:53;;;;;;;12.85;3.00;;;;;;;8.86;100.00;99652.53;5005191;28;20501;-65
2021/11/01 01:30:22;;;;;;;11.77;2.90;;;;;;;8.75;100.00;99641.47;5007152;28;20658;-65
2021/11/01 01:32:50;;;;;;;7.13;3.22;;;;;;;8.75;100.00;99644.16;5002903;28;20177;-69
2021/11/01 01:35:18;;;;;;;8.60;2.03;;;;;;;8.76;100.00;99629.94;5003440;28;20136;-66
2021/11/01 01:37:47;;;;;;;11.57;2.65;;;;;;;8.77;100.00;99623.69;5002815;28;20089;-66
2021/11/01 01:40:16;;;;;;;10.57;2.70;;;;;;;8.74;100.00;99623.81;5005482;28;20049;-66
2021/11/01 01:42:45;;;;;;;10.18;2.90;;;;;;;8.75;100.00;99630.84;5001369;28;20058;-66
2021/11/01 01:45:14;;;;;;;9.40;3.15;;;;;;;8.77;100.00;99627.22;5007287;28;20053;-66
2021/11/01 01:47:43;;;;;;;10.00;2.67;;;;;;;8.71;100.00;99624.81;5002657;28;20313;-66
2021/11/01 01:50:13;;;;;;;8.80;2.80;;;;;;;8.69;100.00;99617.84;5006135;28;20108;-66
2021/11/01 01:52:42;;;;;;;9.20;2.33;;;;;;;8.75;100.00;99613.13;5004865;28;20056;-65
2021/11/01 01:55:13;;;;;;;7.60;2.17;;;;;;;8.72;100.00;99612.41;4999425;28;20050;-69
2021/11/01 01:57:41;;;;;;;12.93;2.60;;;;;;;8.70;100.00;99609.78;5004968;28;20382;-71
2021/11/01 02:00:22;;;;;;;9.52;2.63;;;;;;;8.72;100.00;99602.59;5000565;28;20057;-68
2021/11/01 02:02:51;;;;;;;13.50;2.88;;;;;;;8.69;100.00;99607.19;5003283;28;20073;-67
2021/11/01 02:05:19;;;;;;;11.02;2.53;;;;;;;8.68;100.00;99608.97;5001191;28;21362;-67
2021/11/01 02:07:54;;;;;;;10.30;2.95;;;;;;;8.68;100.00;99608.97;5006756;28;20049;-71
2021/11/01 02:10:28;;;;;;;10.95;2.38;;;;;;;8.70;100.00;99612.47;5000086;28;20073;-68
2021/11/01 02:12:58;;;;;;;9.57;2.47;;;;;;;8.64;100.00;99604.72;5005098;28;20053;-72
2021/11/01 02:15:33;;;;;;;7.88;2.30;;;;;;;8.62;100.00;99609.25;5006205;28;20136;-71
2021/11/01 02:18:05;;;;;;;13.93;2.72;;;;;;;8.63;100.00;99607.47;5006495;28;20375;-67
2021/11/01 02:20:39;;;;;;;11.23;3.28;;;;;;;8.63;100.00;99618.94;5005802;28;20533;-65
2021/11/01 02:23:14;;;;;;;11.98;2.63;;;;;;;8.67;100.00;99620.56;5001437;28;20132;-67
2021/11/01 02:25:46;;;;;;;8.70;2.30;;;;;;;8.74;100.00;99622.00;5005658;28;20203;-64
2021/11/01 02:28:17;;;;;;;9.40;2.60;;;;;;;8.68;100.00;99621.41;5002649;28;20140;-65
2021/11/01 02:30:45;;;;;;;9.88;3.35;;;;;;;8.63;100.00;99626.06;5004662;28;20081;-65
2021/11/01 02:33:14;;;;;;;9.00;2.28;;;;;;;8.60;100.00;99630.59;5000483;28;20068;-69
2021/11/01 02:35:44;;;;;;;7.72;2.55;;;;;;;8.62;100.00;99621.69;5004546;28;20049;-69
2021/11/01 02:38:16;;;;;;;10.35;2.28;;;;;;;8.66;100.00;99626.78;5001072;28;20049;-69
2021/11/01 02:40:46;;;;;;;9.60;2.50;;;;;;;8.64;100.00;99636.66;5003891;28;20053;-69
2021/11/01 02:43:15;;;;;;;15.98;3.35;;;;;;;8.61;100.00;99631.44;5006535;28;20568;-69
2021/11/01 02:45:44;;;;;;;10.77;2.95;;;;;;;8.67;100.00;99623.22;5000497;28;20053;-69
2021/11/01 02:48:13;;;;;;;8.88;3.00;;;;;;;8.72;100.00;99617.72;5007091;28;20084;-69
2021/11/01 02:50:41;;;;;;;12.02;2.60;;;;;;;8.65;100.00;99611.78;5001669;28;20137;-65
2021/11/01 02:53:09;;;;;;;12.30;2.70;;;;;;;8.74;100.00;99627.34;5005860;28;20064;-67
2021/11/01 02:55:37;;;;;;;12.18;3.25;;;;;;;8.71;100.00;99629.25;5000100;28;20049;-71
2021/11/01 02:58:08;;;;;;;11.10;2.55;;;;;;;8.70;100.00;99633.72;5004898;28;20049;-69
2021/11/01 03:00:36;;;;;;;9.65;3.35;;;;;;;8.77;100.00;99624.53;4999095;28;20198;-69
2021/11/01 03:03:06;;;;;;;15.48;3.30;;;;;;;8.77;100.00;99640.50;5007371;28;20057;-69
2021/11/01 03:05:36;;;;;;;10.73;2.63;;;;;;;8.84;100.00;99627.81;5006711;28;20525;-69
2021/11/01 03:08:06;;;;;;;14.15;3.95;;;;;;;8.79;100.00;99635.97;5000768;28;20267;-68
2021/11/01 03:10:34;;;;;;;15.18;3.35;;;;;;;8.76;100.00;99641.44;5003520;28;20628;-71
2021/11/01 03:13:02;;;;;;;11.93;3.35;;;;;;;8.74;100.00;99642.44;4999667;28;20514;-69
2021/11/01 03:15:31;;;;;;;11.77;2.88;;;;;;;8.69;100.00;99633.78;5003881;28;20057;-71
2021/11/01 03:18:03;;;;;;;9.30;3.13;;;;;;;8.69;100.00;99641.78;5002427;28;20041;-72
2021/11/01 03:20:33;;;;;;;13.02;2.97;;;;;;;8.68;100.00;99632.91;5005611;28;20272;-70
2021/11/01 03:23:07;;;;;;;7.35;2.60;;;;;;;8.67;100.00;99635.66;5000043;28;20077;-68
2021/11/01 03:25:44;;;;;;;13.75;3.15;;;;;;;8.67;100.00;99628.53;5004012;28;20049;-69
2021/11/01 03:28:13;;;;;;;6.95;2.60;;;;;;;8.69;100.00;99625.81;5003484;28;20115;-69
2021/11/01 03:30:43;;;;;;;13.32;3.70;;;;;;;8.67;100.00;99628.53;5003804;28;20050;-69
2021/11/01 03:33:14;;;;;;;9.77;2.45;;;;;;;8.58;100.00;99624.50;5002603;28;20080;-69
2021/11/01 03:35:43;;;;;;;11.93;3.15;;;;;;;8.59;100.00;99625.34;5000306;28;20053;-69
2021/11/01 03:38:13;;;;;;;11.20;3.08;;;;;;;8.57;100.00;99620.09;5003023;28;20050;-68
2021/11/01 03:40:45;;;;;;;9.40;3.35;;;;;;;8.54;100.00;99624.69;5000611;28;20049;-69
2021/11/01 03:43:17;;;;;;;6.13;2.58;;;;;;;8.45;100.00;99623.28;5002935;28;20066;-69
2021/11/01 03:45:47;;;;;;;14.18;3.67;;;;;;;8.44;100.00;99618.03;5002064;28;20084;-69
2021/11/01 03:48:18;;;;;;;13.15;2.88;;;;;;;8.40;100.00;99610.16;4999124;28;20148;-69
2021/11/01 03:50:56;;;;;;;8.80;3.35;;;;;;;8.40;100.00;99623.44;5004214;28;20140;-69
2021/11/01 03:53:24;;;;;;;12.25;3.13;;;;;;;8.41;100.00;99617.19;5003034;28;20057;-69
2021/11/01 03:55:52;;;;;;;9.68;3.00;;;;;;;8.37;100.00;99607.59;5004507;28;20248;-64
2021/11/01 03:58:20;;;;;;;15.18;3.83;;;;;;;8.44;100.00;99615.38;4998239;28;20136;-65
2021/11/01 04:00:51;;;;;;;10.13;3.08;;;;;;;8.41;100.00;99608.34;5002580;28;20080;-65
2021/11/01 04:03:21;;;;;;;9.30;2.83;;;;;;;8.36;100.00;99615.66;4997566;28;20085;-65
2021/11/01 04:05:52;;;;;;;14.48;2.97;;;;;;;8.39;100.00;99610.19;5003596;28;20049;-65
2021/11/01 04:08:21;;;;;;;14.13;2.88;;;;;;;8.33;100.00;99603.38;5001044;28;20095;-65
2021/11/01 04:10:49;;;;;;;11.70;3.00;;;;;;;8.37;100.00;99604.09;5001277;28;20104;-65
2021/11/01 04:13:17;;;;;;;15.55;3.35;;;;;;;8.41;100.00;99611.00;4998882;28;20490;-65
2021/11/01 04:15:50;;;;;;;22.52;4.30;;;;;;;8.44;100.00;99600.28;5003103;28;20053;-65
2021/11/01 04:18:26;;;;;;;10.30;3.05;;;;;;;8.42;100.00;99599.44;5003617;28;20054;-65
2021/11/01 04:20:55;;;;;;;15.25;4.18;;;;;;;8.47;100.00;99591.31;4999317;28;20093;-65
2021/11/01 04:23:28;;;;;;;18.50;3.38;;;;;;;8.41;100.00;99603.03;5006143;28;20050;-66
2021/11/01 04:25:59;;;;;;;11.20;3.33;;;;;;;8.49;100.00;99586.78;4999576;28;20100;-66
2021/11/01 04:28:51;;;;;;;12.15;3.50;;;;;;;8.54;100.00;99583.00;5006339;28;20176;-66
2021/11/01 04:31:23;;;;;;;7.32;2.20;;;;;;;8.60;100.00;99601.34;5003409;28;20053;-66
2021/11/01 04:33:55;;;;;;;8.32;2.33;;;;;;;8.57;100.00;99597.97;5010996;28;20518;-67
2021/11/01 04:36:23;;;;;;;10.35;3.42;;;;;;;8.58;100.00;99603.22;5003466;28;20476;-66
2021/11/01 04:39:00;;;;;;;14.15;3.60;;;;;;;8.56;100.00;99602.44;5007000;28;20141;-66
2021/11/01 04:41:34;;;;;;;9.20;2.30;;;;;;;8.55;100.00;99610.47;5005827;28;20055;-66
2021/11/01 04:44:48;;;;;;;12.00;3.92;;;;;;;8.47;100.00;99620.56;5007409;28;20045;-66
2021/11/01 04:52:59;;;;;;;10.77;3.28;;;;;;;8.46;100.00;99625.00;5002254;28;20136;-66
2021/11/01 04:55:27;;;;;;;11.82;2.92;;;;;;;8.46;100.00;99618.81;5004950;28;20142;-66
2021/11/01 04:57:56;;;;;;;8.52;2.50;;;;;;;8.46;100.00;99621.47;4998620;28;20130;-66
2021/11/01 05:00:24;;;;;;;9.63;2.75;;;;;;;8.43;100.00;99627.81;5006050;28;20156;-66
2021/11/01 05:02:58;;;;;;;17.02;4.43;;;;;;;8.43;100.00;99618.94;5008186;28;20056;-66
2021/11/01 05:05:28;;;;;;;10.25;2.75;;;;;;;8.42;100.00;99620.72;5001529;28;20067;-66
2021/11/01 05:07:59;;;;;;;14.05;3.00;;;;;;;8.45;100.00;99625.09;5005576;28;20042;-66
2021/11/01 05:10:33;;;;;;;11.23;2.53;;;;;;;8.47;100.00;99633.84;5004065;28;20500;-66
2021/11/01 05:13:06;;;;;;;10.95;2.78;;;;;;;8.45;100.00;99630.41;5006469;28;20198;-66
2021/11/01 05:15:38;;;;;;;11.87;3.13;;;;;;;8.41;100.00;99632.25;5000390;28;20628;-70
2021/11/01 05:18:18;;;;;;;11.13;3.00;;;;;;;8.42;100.00;99644.63;5008606;28;20816;-70
2021/11/01 05:20:52;;;;;;;11.57;2.47;;;;;;;8.39;100.00;99629.69;4998893;28;20049;-66
2021/11/01 05:23:29;;;;;;;9.43;2.80;;;;;;;8.34;100.00;99647.63;5007160;28;20565;-66
2021/11/01 05:26:01;;;;;;;12.20;2.72;;;;;;;8.41;100.00;99633.16;5003404;28;20153;-66
2021/11/01 05:28:41;;;;;;;8.48;3.08;;;;;;;8.38;100.00;99635.94;5003874;28;20060;-66
2021/11/01 05:31:15;;;;;;;13.48;3.03;;;;;;;8.41;100.00;99643.78;5006633;28;20088;-66
2021/11/01 05:33:54;;;;;;;15.63;3.22;;;;;;;8.43;100.00;99633.13;5005239;28;20096;-66
2021/11/01 05:36:23;;;;;;;14.73;2.65;;;;;;;8.36;100.00;99639.56;5007626;28;20045;-66
2021/11/01 05:38:51;;;;;;;11.85;2.90;;;;;;;8.29;100.00;99646.06;5001109;28;20045;-66
2021/11/01 05:41:19;;;;;;;9.32;2.30;;;;;;;8.38;100.00;99654.53;5006081;28;20053;-66
2021/11/01 05:43:48;;;;;;;8.55;2.60;;;;;;;8.37;100.00;99638.66;5002858;28;20058;-66
2021/11/01 05:46:17;;;;;;;11.45;2.58;;;;;;;8.40;100.00;99649.16;5004472;28;20975;-66
2021/11/01 05:48:51;;;;;;;8.23;2.85;;;;;;;8.38;100.00;99656.34;5003634;28;20049;-66
2021/11/01 05:51:22;;;;;;;8.13;3.08;;;;;;;8.29;100.00;99654.94;5003242;28;20140;-66
2021/11/01 05:53:54;;;;;;;11.32;2.67;;;;;;;8.32;100.00;99653.94;4999983;28;20054;-66
2021/11/01 05:56:31;;;;;;;11.65;2.95;;;;;;;8.33;100.00;99645.88;5006000;28;20085;-66
2021/11/01 05:59:19;;;;;;;10.30;3.15;;;;;;;8.31;100.00;99658.38;5001519;28;20046;-66
2021/11/01 06:04:42;;;;;;;9.25;2.90;;;;;;;8.21;100.00;99665.88;4994145;28;20329;-71
2021/11/01 06:07:23;;;;;;;8.50;2.72;;;;;;;8.19;100.00;99662.41;5004618;28;20049;-69
2021/11/01 06:10:03;;;;;;;7.15;2.67;;;;;;;8.19;100.00;99666.88;5005447;28;20045;-69
2021/11/01 06:15:16;;;;;;;10.95;3.38;;;;;;;8.06;100.00;99660.31;5004881;28;20045;-70
2021/11/01 06:17:45;;;;;;;9.07;2.70;;;;;;;8.05;100.00;99675.38;5004413;28;20369;-70
2021/11/01 06:20:13;;;;;;;11.80;2.35;;;;;;;8.05;100.00;99678.03;5004963;28;20064;-69
2021/11/01 06:22:43;;;;;;;10.48;2.83;;;;;;;8.12;100.00;99676.88;5003439;28;20318;-69
2021/11/01 06:25:15;;;;;;;10.35;2.58;;;;;;;8.07;100.00;99672.66;5003351;28;20185;-70
2021/11/01 06:27:43;;;;;;;12.35;2.72;;;;;;;8.11;100.00;99684.91;5002997;28;20046;-71
2021/11/01 06:30:22;;;;;;;7.07;2.45;;;;;;;8.06;100.00;99677.13;5003729;28;20446;-70
2021/11/01 06:33:00;;;;;;;8.40;2.35;;;;;;;8.12;100.00;99678.66;4998255;28;20111;-70
2021/11/01 06:41:28;;;;;;;6.30;1.98;;;;;;;8.33;100.00;99693.72;5004323;28;20049;-70
2021/11/01 06:44:16;;;;;;;7.35;2.50;;;;;;;8.30;100.00;99696.50;4999009;28;20045;-70
2021/11/01 06:55:13;;;;;;;9.40;2.20;;;;;;;8.36;100.00;99700.69;5001950;28;22072;-72
2021/11/01 06:57:52;;;;;;;9.30;2.40;;;;;;;8.47;100.00;99705.63;5005704;28;20055;-72
2021/11/01 07:14:28;;;;;;;10.02;3.20;;;;;;;8.63;100.00;99705.84;5003522;28;20057;-68
2021/11/01 07:16:59;;;;;;;8.55;2.95;;;;;;;8.61;100.00;99705.91;5006519;28;20219;-66
2021/11/01 07:19:36;;;;;;;13.13;3.20;;;;;;;8.65;100.00;99707.53;5002557;28;20053;-66
2021/11/01 08:22:53;;;;;;;7.75;2.33;;;;;;;8.85;97.40;99751.03;4983661;28;20058;-72
2021/11/01 08:42:36;;;;;;;7.45;2.20;;;;;;;9.01;95.47;99745.91;4986894;28;20644;-71
2021/11/01 08:48:07;;;;;;;9.98;2.45;;;;;;;9.16;94.90;99743.47;4996924;28;20058;-67
2021/11/01 08:51:05;;;;;;;;;;;;;;;9.27;95.40;99745.66;5003915;28;20071;-67
2021/11/01 09:02:16;;;;;;;12.27;2.63;;;;;;;9.44;93.18;99738.72;5000870;28;20565;-66
2021/11/01 09:05:08;;;;;;;6.55;2.30;;;;;;;9.45;93.24;99743.97;4999247;28;20064;-66
2021/11/01 09:07:56;;;;;;;9.68;2.40;;;;;;;9.58;92.71;99738.09;4997722;28;20077;-72
2021/11/01 09:10:56;;;;;;;6.90;2.25;;;;;;;9.64;92.23;99741.34;5001928;28;20060;-72
2021/11/01 09:18:57;;;;;;;11.32;2.33;;;;;;;9.89;91.44;99756.19;5008014;28;20042;-71
2021/11/01 09:27:04;;;;;;;10.20;2.65;;;;;;;9.99;88.70;99743.28;4999594;28;20239;-67
2021/11/01 09:29:46;;;;;;;7.90;1.98;;;;;;;10.07;87.79;99749.13;5006118;28;20096;-66
2021/11/01 09:41:03;;;;;;;8.40;2.33;;;;;;;10.42;87.74;99766.16;4992613;28;20060;-66
2021/11/01 09:43:33;;;;;;;;;;;;;;;10.31;85.39;99764.91;5004529;28;20049;-66
2021/11/01 09:46:03;;;;;;;8.50;2.15;;;;;;;10.43;85.77;99756.34;5007975;28;19925;-67
2021/11/01 09:48:32;;;;;;;7.55;2.00;;;;;;;10.45;84.58;99763.34;5004816;28;20053;-67
2021/11/01 09:50:59;;;;;;;6.28;1.60;;;;;;;10.56;84.62;99760.13;5006511;28;20049;-67
2021/11/01 09:53:30;;;;;;;4.22;1.65;;;;;;;10.54;84.10;99755.81;5004698;28;20442;-66
2021/11/01 09:56:18;;;;;;;8.65;2.13;;;;;;;10.68;84.82;99753.34;5006281;28;20571;-71
2021/11/01 10:01:35;;;;;;;3.60;1.77;;;;;;;10.72;83.91;99756.72;5000533;28;20049;-72
2021/11/01 10:04:03;;;;;;;3.80;1.80;;;;;;;10.66;85.25;99755.22;5005927;28;20550;-72
2021/11/01 10:06:31;;;;;;;7.55;2.75;;;;;;;10.84;84.83;99758.75;5003446;28;20057;-72
2021/11/01 10:09:02;;;;;;;3.65;1.90;;;;;;;10.96;84.36;99770.63;5007226;28;20041;-72
2021/11/01 10:11:34;;;;;;;3.47;1.80;;;;;;;11.01;84.44;99774.78;5004089;28;20397;-65
2021/11/01 10:14:06;;;;;;;3.57;1.67;;;;;;;10.84;83.41;99764.09;5005546;28;20053;-68
2021/11/01 10:19:28;;;;;;;6.10;2.20;;;;;;;11.10;83.75;99764.56;5004102;28;20156;-66
2021/11/01 10:21:57;;;;;;;5.47;1.90;;;;;;;11.20;83.30;99771.16;5002223;28;20124;-66
2021/11/01 10:24:28;;;;;;;7.57;2.13;;;;;;;11.18;81.62;99763.22;5002300;28;20064;-73
2021/11/01 10:26:57;;;;;;;5.60;2.10;;;;;;;11.39;81.57;99776.41;5007733;28;20111;-67
2021/11/01 10:29:26;;;;;;;8.30;1.92;;;;;;;11.41;81.26;99777.22;5003529;28;20167;-68
2021/11/01 10:31:54;;;;;;;5.57;1.67;;;;;;;11.43;81.57;99780.66;5007368;28;20151;-72
2021/11/01 10:34:28;;;;;;;4.07;1.55;;;;;;;11.48;81.00;99778.63;4998734;28;20593;-72
2021/11/01 10:37:00;;;;;;;6.43;2.00;;;;;;;11.43;81.78;99799.38;5005741;28;20421;-73
2021/11/01 10:39:28;;;;;;;5.70;1.75;;;;;;;11.41;81.33;99793.25;5004609;28;20049;-72
2021/11/01 10:42:13;;;;;;;7.25;1.98;;;;;;;11.61;81.05;99775.28;5005368;28;20489;-73
2021/11/01 10:56:20;;;;;;;7.43;2.65;;;;;;;11.59;81.02;99778.94;4998685;28;20429;-73
2021/11/01 11:12:57;;;;;;;5.72;1.90;;;;;;;11.82;78.00;99787.50;4997855;28;20491;-66
2021/11/01 11:15:27;;;;;;;7.97;1.90;;;;;;;11.89;77.88;99783.56;5003227;28;20103;-66
2021/11/01 11:18:23;;;;;;;3.97;1.67;;;;;;;11.87;77.13;99793.47;5002601;28;20324;-66
2021/11/01 11:21:03;;;;;;;3.63;1.80;;;;;;;11.64;78.46;99793.84;5003159;28;20057;-74
2021/11/01 11:26:52;;;;;;;7.82;1.70;;;;;;;11.81;78.48;99782.25;5000594;28;20544;-68
2021/11/01 11:29:36;;;;;;;6.60;1.90;;;;;;;11.90;77.98;99773.72;5014433;28;20045;-68
2021/11/01 11:38:11;;;;;;;6.45;2.20;;;;;;;11.89;77.08;99793.38;4980781;28;20046;-73
2021/11/01 11:49:08;;;;;;;5.25;2.17;;;;;;;12.07;76.08;99788.88;5002073;28;20081;-73
2021/11/01 11:51:38;;;;;;;2.67;1.65;;;;;;;11.93;75.59;99774.44;5005602;28;20136;-73
2021/11/01 11:54:08;;;;;;;6.03;2.20;;;;;;;12.37;76.45;99783.63;4998058;28;20184;-73
2021/11/01 11:56:38;;;;;;;7.88;2.17;;;;;;;12.37;75.62;99780.09;5002516;28;20120;-74
2021/11/01 11:59:09;;;;;;;12.65;2.50;;;;;;;12.36;74.66;99783.72;5003177;28;20576;-74
2021/11/01 12:01:41;;;;;;;5.65;1.85;;;;;;;12.40;75.47;99787.97;4999361;28;20042;-73
2021/11/01 12:04:21;;;;;;;3.47;1.90;;;;;;;12.54;74.51;99776.47;5002106;28;20042;-73
2021/11/01 12:07:00;;;;;;;6.22;2.08;;;;;;;12.50;75.05;99787.34;4998029;28;20052;-74
2021/11/01 12:09:32;;;;;;;5.15;1.60;;;;;;;12.58;74.22;99786.91;5002364;28;20065;-74
2021/11/01 12:17:49;;;;;;;5.00;1.70;;;;;;;12.41;73.04;99801.25;4978777;28;20385;-73
2021/11/01 12:20:21;;;;;;;4.63;1.85;;;;;;;12.60;73.83;99785.00;5002155;28;20042;-74
2021/11/01 12:22:58;;;;;;;6.35;1.98;;;;;;;12.32;72.77;99783.88;4997112;28;20045;-74
2021/11/01 12:25:37;;;;;;;9.00;2.22;;;;;;;12.56;73.29;99775.41;5003345;28;20085;-74
2021/11/01 12:28:14;;;;;;;6.80;2.15;;;;;;;12.75;73.33;99783.25;4999806;28;20603;-74
2021/11/01 12:30:47;;;;;;;3.00;1.70;;;;;;;12.58;72.67;99784.25;5005548;28;20454;-74
2021/11/01 12:33:17;;;;;;;5.00;2.22;;;;;;;12.48;74.05;99764.28;5002128;28;20140;-74
2021/11/01 12:35:49;;;;;;;10.75;2.67;;;;;;;12.56;74.61;99764.72;4998819;28;20136;-74
2021/11/01 12:38:34;;;;;;;5.88;2.17;;;;;;;12.55;74.85;99775.50;5004916;28;20194;-74
2021/11/01 12:41:13;;;;;;;4.18;2.40;;;;;;;12.57;73.51;99773.63;4998079;28;20042;-74
2021/11/01 12:57:49;;;;;;;7.85;2.22;;;;;;;12.42;73.73;99786.06;5003510;28;20037;-75
2021/11/01 13:00:17;;;;;;;6.00;2.20;;;;;;;12.36;74.44;99794.41;5008359;28;20049;-74
2021/11/01 13:02:46;;;;;;;3.65;2.00;;;;;;;12.45;74.48;99783.22;5002404;28;20056;-68
2021/11/01 13:05:18;;;;;;;9.43;2.35;;;;;;;12.47;74.85;99783.97;5005293;28;20131;-68
2021/11/01 13:07:52;;;;;;;8.07;2.33;;;;;;;12.78;75.25;99774.19;5000518;28;20129;-67
2021/11/01 13:10:33;;;;;;;5.55;2.20;;;;;;;12.65;74.43;99774.91;5004426;28;20091;-67
2021/11/01 13:13:22;;;;;;;6.68;2.20;;;;;;;12.99;74.13;99786.34;5000217;28;20057;-73
2021/11/01 13:19:08;;;;;;;8.77;2.17;;;;;;;12.58;72.83;99770.88;5001665;28;20580;-67
2021/11/01 13:21:42;;;;;;;7.47;2.38;;;;;;;12.63;73.13;99784.84;5003190;28;20147;-67
2021/11/01 13:24:11;;;;;;;7.90;2.53;;;;;;;12.58;74.43;99778.00;5005485;28;20050;-67
2021/11/01 13:26:56;;;;;;;7.07;2.50;;;;;;;12.56;75.17;99782.59;5007707;28;21465;-67
2021/11/01 13:37:36;;;;;;;5.68;2.45;;;;;;;12.29;76.41;99778.72;5001081;28;20344;-70
2021/11/01 13:40:06;;;;;;;3.72;2.13;;;;;;;12.40;75.41;99788.81;5004340;28;20052;-67
2021/11/01 13:42:39;;;;;;;9.80;2.40;;;;;;;12.18;76.26;99788.28;5002474;28;20545;-75
2021/11/01 13:45:12;;;;;;;10.80;2.42;;;;;;;12.08;76.60;99779.91;5002821;28;20592;-75
2021/11/01 13:47:46;;;;;;;7.70;2.20;;;;;;;12.27;76.96;99774.41;5003824;28;20073;-75
2021/11/01 13:50:16;;;;;;;6.00;2.42;;;;;;;12.18;76.07;99766.91;5006932;28;20601;-75
2021/11/01 13:52:55;;;;;;;7.07;2.40;;;;;;;12.13;75.93;99767.16;4999113;28;20045;-67
2021/11/01 13:55:33;;;;;;;5.72;2.00;;;;;;;12.28;76.84;99757.41;5005419;28;21057;-68
2021/11/01 13:58:07;;;;;;;4.03;2.30;;;;;;;12.25;76.01;99763.78;5001189;28;20683;-68
2021/11/01 14:00:45;;;;;;;5.88;2.17;;;;;;;12.45;76.14;99767.16;5006194;28;20241;-68
2021/11/01 14:03:38;;;;;;;7.65;2.08;;;;;;;12.11;75.98;99755.69;5007879;28;20054;-68
2021/11/01 14:11:47;;;;;;;7.30;2.00;;;;;;;11.54;76.35;99764.06;5005151;28;20331;-76
2021/11/01 14:14:31;;;;;;;6.28;2.17;;;;;;;11.46;77.03;99782.28;5003622;28;20056;-77
2021/11/01 14:17:05;;;;;;;7.97;2.08;;;;;;;11.44;77.53;99777.06;5001901;28;20057;-74
2021/11/01 15:01:56;;;;;;;4.78;2.00;;;;;;;10.78;87.73;99783.94;5003611;28;20055;-75
2021/11/01 15:21:28;;;;;;;1.58;1.30;;;;;;;9.79;88.15;99789.50;4986416;28;20152;-75
2021/11/01 15:24:12;;;;;;;3.60;1.27;;;;;;;9.67;88.30;99786.50;5004839;28;20088;-75
2021/11/01 15:26:55;;;;;;;1.02;1.02;;;;;;;9.63;88.32;99781.34;5001139;28;20053;-76
2021/11/01 15:35:45;;;;;;;1.80;1.30;;;;;;;9.90;87.98;99785.41;5076297;27;20397;-75
2021/11/01 15:38:23;;;;;;;3.95;1.25;;;;;;;9.93;87.85;99794.19;5038503;28;20485;-75
2021/11/01 16:17:25;;;;;;;3.15;1.45;;;;;;;9.11;89.26;99812.00;5041248;28;20052;-69
2021/11/01 16:19:54;;;;;;;3.92;1.80;;;;;;;9.04;89.61;99810.53;5041291;28;20302;-68
2021/11/01 16:22:23;;;;;;;4.53;1.75;;;;;;;9.02;89.71;99815.03;5044540;28;20140;-68
2021/11/01 16:24:53;;;;;;;4.78;1.65;;;;;;;8.95;89.76;99819.72;5040637;28;20508;-68
2021/11/01 16:27:24;;;;;;;2.17;1.33;;;;;;;8.95;89.48;99818.88;5042919;28;20091;-68
2021/11/01 16:29:59;;;;;;;1.57;1.47;;;;;;;8.93;89.43;99813.63;5039372;28;20546;-69
2021/11/01 16:32:32;;;;;;;3.40;1.40;;;;;;;8.86;89.22;99821.94;5045639;28;20049;-68
2021/11/01 16:35:08;;;;;;;6.32;1.85;;;;;;;8.85;88.94;99815.72;5038887;28;20048;-67
2021/11/01 16:37:43;;;;;;;1.88;1.50;;;;;;;8.82;88.55;99813.22;5047971;28;20345;-69
2021/11/01 16:40:14;;;;;;;3.78;1.73;;;;;;;8.76;88.87;99826.75;5040780;28;20067;-73
2021/11/01 16:42:44;;;;;;;2.65;1.33;;;;;;;8.76;88.58;99827.59;5042691;28;20095;-73
2021/11/01 16:45:16;;;;;;;2.95;1.70;;;;;;;8.73;88.83;99833.03;5034295;28;20045;-73
2021/11/01 16:47:48;;;;;;;2.88;1.90;;;;;;;8.70;89.27;99834.97;5031753;28;20056;-73
2021/11/01 16:50:18;;;;;;;3.92;1.60;;;;;;;8.65;89.43;99840.50;5029437;28;20058;-73
2021/11/01 16:52:48;;;;;;;1.60;1.48;;;;;;;8.63;90.27;99837.00;5024516;28;20049;-73
2021/11/01 16:55:20;;;;;;;4.28;1.80;;;;;;;8.56;91.22;99838.19;5030760;28;20063;-73
2021/11/01 16:57:54;;;;;;;3.35;1.80;;;;;;;8.53;91.95;99835.63;5023986;28;20045;-73
2021/11/01 17:00:32;;;;;;;4.03;1.83;;;;;;;8.51;92.34;99833.06;5030735;28;20486;-75
2021/11/01 17:03:14;;;;;;;3.50;1.55;;;;;;;8.50;93.36;99841.09;5027700;28;20045;-75
2021/11/01 17:05:55;;;;;;;3.67;1.90;;;;;;;8.44;94.40;99838.69;5028476;28;20526;-74
2021/11/01 17:08:54;;;;;;;4.93;1.70;;;;;;;8.36;95.18;99845.13;5027881;28;20555;-74
2021/11/01 17:22:32;;;;;;;3.67;1.85;;;;;;;8.23;98.04;99849.19;5030822;28;20052;-68
2021/11/01 17:25:05;;;;;;;6.32;2.33;;;;;;;8.19;98.10;99856.41;5023157;28;20132;-73
2021/11/01 17:30:51;;;;;;;5.65;2.20;;;;;;;8.15;99.32;99860.09;5026563;28;20501;-68
2021/11/01 17:36:35;;;;;;;3.03;2.13;;;;;;;8.02;99.77;99859.69;5026005;28;20335;-67
2021/11/01 18:38:52;;;;;;;7.05;3.70;;;;;;;7.75;100.00;99900.53;5041146;28;20568;-68
2021/11/01 18:41:23;;;;;;;9.43;3.38;;;;;;;7.71;100.00;99894.44;5039512;28;20049;-68
2021/11/01 18:44:32;;;;;;;6.63;3.25;;;;;;;7.71;100.00;99902.41;5039292;28;20555;-68
2021/11/01 18:52:42;;;;;;;6.95;2.80;;;;;;;7.72;100.00;99919.22;5041944;28;20141;-74
2021/11/01 18:55:11;;;;;;;7.28;2.95;;;;;;;7.73;100.00;99912.97;5041936;28;20045;-74
2021/11/01 18:57:42;;;;;;;8.68;3.35;;;;;;;7.67;100.00;99917.59;5046616;28;20400;-74